Time;durP1;ratioP1;P1;durP2;ratioP2;P2;SDS_P1;SDS_P2;PMS_P1;PMS_P2;Temp;Humidity;BMP_temperature;BMP_pressure;BME280_temperature;BME280_humidity;BME280_pressure;Samples;Min_cycle;Max_cycle;Signal;HPM_P1;HPM_P2
2023/11/17 00:01:55;;;;;;;8.70;2.25;;;5.80;99.90;;;;;;6211888;23;20004;-75
2023/11/17 00:04:21;;;;;;;7.55;2.65;;;5.80;99.90;;;;;;6213204;23;20462;-76
2023/11/17 00:06:47;;;;;;;6.47;2.45;;;5.80;99.90;;;;;;6208971;23;20020;-76
2023/11/17 00:09:13;;;;;;;8.73;2.03;;;5.80;99.90;;;;;;6210893;23;20091;-76
2023/11/17 00:11:39;;;;;;;5.68;3.00;;;5.80;99.90;;;;;;6210908;23;20059;-76
2023/11/17 00:14:06;;;;;;;5.13;2.72;;;5.80;99.90;;;;;;6210428;23;20021;-77
2023/11/17 00:16:31;;;;;;;7.32;2.55;;;5.80;99.90;;;;;;6209797;23;20106;-76
2023/11/17 00:18:57;;;;;;;5.43;2.58;;;5.80;99.90;;;;;;6210862;23;20036;-77
2023/11/17 00:21:23;;;;;;;5.03;2.65;;;5.80;99.90;;;;;;6210077;23;20463;-78
2023/11/17 00:23:49;;;;;;;5.85;2.55;;;5.80;99.90;;;;;;6209372;23;20091;-76
2023/11/17 00:26:14;;;;;;;4.20;2.00;;;5.90;99.90;;;;;;6209919;23;20024;-76
2023/11/17 00:28:40;;;;;;;6.05;3.22;;;5.90;99.90;;;;;;6208909;23;20016;-76
2023/11/17 00:31:13;;;;;;;7.60;2.95;;;5.90;99.90;;;;;;6211031;23;20011;-77
2023/11/17 00:33:40;;;;;;;7.40;2.83;;;5.90;99.90;;;;;;6209458;23;20012;-78
2023/11/17 00:36:08;;;;;;;3.75;2.30;;;5.90;99.90;;;;;;6210745;23;20323;-77
2023/11/17 00:38:36;;;;;;;8.80;2.95;;;5.90;99.90;;;;;;6209574;23;20012;-77
2023/11/17 00:41:03;;;;;;;5.53;2.53;;;5.90;99.90;;;;;;6212189;23;20003;-77
2023/11/17 00:43:29;;;;;;;3.75;1.77;;;5.90;99.90;;;;;;6210077;23;20012;-78
2023/11/17 00:45:58;;;;;;;6.82;2.13;;;5.90;99.90;;;;;;6209722;23;20012;-76
2023/11/17 00:48:25;;;;;;;5.45;2.30;;;5.90;99.90;;;;;;6210137;23;20385;-77
2023/11/17 00:50:52;;;;;;;5.32;2.38;;;5.90;99.90;;;;;;6211893;23;20012;-77
2023/11/17 00:53:22;;;;;;;4.43;2.00;;;5.90;99.90;;;;;;6212254;23;20008;-77
2023/11/17 00:55:49;;;;;;;12.05;1.80;;;5.90;99.90;;;;;;6208970;23;20011;-77
2023/11/17 00:58:15;;;;;;;5.00;2.10;;;5.80;99.90;;;;;;6210676;23;20013;-78
2023/11/17 01:00:41;;;;;;;4.00;1.75;;;5.90;99.90;;;;;;6209392;23;20399;-77
2023/11/17 01:03:07;;;;;;;6.72;2.22;;;5.80;99.90;;;;;;6210516;23;20011;-76
2023/11/17 01:05:33;;;;;;;5.45;1.92;;;5.80;99.90;;;;;;6209380;23;20091;-77
2023/11/17 01:08:00;;;;;;;5.05;2.22;;;5.80;99.90;;;;;;6210184;23;20066;-77
2023/11/17 01:10:26;;;;;;;6.88;2.42;;;5.90;99.90;;;;;;6209259;23;20012;-79
2023/11/17 01:12:52;;;;;;;7.88;2.80;;;5.90;99.90;;;;;;6210890;23;20015;-76
2023/11/17 01:15:19;;;;;;;4.43;2.28;;;5.90;99.90;;;;;;6210452;23;20017;-76
2023/11/17 01:17:45;;;;;;;8.00;2.28;;;5.90;99.90;;;;;;6209079;23;20015;-77
2023/11/17 01:20:12;;;;;;;5.47;1.90;;;5.80;99.90;;;;;;6210906;23;20008;-77
2023/11/17 01:22:40;;;;;;;6.90;1.80;;;5.80;99.90;;;;;;6208853;23;20107;-76
2023/11/17 01:25:06;;;;;;;5.13;2.08;;;5.80;99.90;;;;;;6211455;23;20443;-76
2023/11/17 01:27:32;;;;;;;6.30;2.40;;;5.80;99.90;;;;;;6207928;23;20013;-77
2023/11/17 01:29:57;;;;;;;4.05;2.40;;;5.80;99.90;;;;;;6209785;23;20012;-74
2023/11/17 01:32:23;;;;;;;4.70;2.13;;;5.80;99.90;;;;;;6210746;23;20040;-76
2023/11/17 01:34:49;;;;;;;3.53;2.22;;;5.80;99.90;;;;;;6209203;23;20040;-77
2023/11/17 01:37:15;;;;;;;5.82;1.98;;;5.80;99.90;;;;;;6209869;23;20598;-78
2023/11/17 01:39:40;;;;;;;5.15;1.98;;;5.80;99.90;;;;;;6208820;23;20028;-78
2023/11/17 01:42:06;;;;;;;8.00;2.10;;;5.80;99.90;;;;;;6209783;23;20051;-76
2023/11/17 01:44:32;;;;;;;3.83;2.05;;;5.80;99.90;;;;;;6208947;23;20013;-76
2023/11/17 01:46:58;;;;;;;5.78;1.95;;;5.80;99.90;;;;;;6210167;23;20024;-77
2023/11/17 01:49:24;;;;;;;3.80;1.85;;;5.80;99.90;;;;;;6210540;23;20020;-77
2023/11/17 01:51:51;;;;;;;4.95;2.25;;;5.80;99.90;;;;;;6209080;23;20043;-77
2023/11/17 01:54:17;;;;;;;9.50;2.55;;;5.80;99.90;;;;;;6210114;23;20017;-77
2023/11/17 01:56:43;;;;;;;6.50;2.03;;;5.80;99.90;;;;;;6208694;23;20016;-77
2023/11/17 01:59:10;;;;;;;6.25;2.33;;;5.80;99.90;;;;;;6210151;23;20501;-77
2023/11/17 02:01:35;;;;;;;6.05;2.35;;;5.80;99.90;;;;;;6209131;23;20506;-77
2023/11/17 02:04:02;;;;;;;7.05;2.00;;;5.90;99.90;;;;;;6210143;23;20040;-77
2023/11/17 02:06:53;;;;;;;6.40;1.90;;;5.90;99.90;;;;;;6210661;23;20012;-77
2023/11/17 02:09:44;;;;;;;5.43;2.25;;;5.90;99.90;;;;;;6210386;23;20350;-77
2023/11/17 02:12:35;;;;;;;5.07;2.10;;;5.90;99.90;;;;;;6208772;23;20040;-76
2023/11/17 02:15:09;;;;;;;3.95;2.00;;;5.90;99.90;;;;;;6206934;23;20091;-75
2023/11/17 02:17:42;;;;;;;5.18;2.53;;;5.90;99.90;;;;;;6206345;23;20024;-77
2023/11/17 02:20:13;;;;;;;5.45;2.00;;;5.90;99.90;;;;;;6207177;23;20008;-76
2023/11/17 02:22:45;;;;;;;5.22;2.38;;;5.90;99.90;;;;;;6206184;23;20795;-75
2023/11/17 02:25:34;;;;;;;5.07;2.08;;;5.90;99.90;;;;;;6207158;23;20008;-77
2023/11/17 02:28:21;;;;;;;6.38;2.58;;;5.90;99.90;;;;;;6206504;23;20008;-76
2023/11/17 02:30:55;;;;;;;4.45;2.42;;;5.90;99.90;;;;;;6208730;23;20011;-77
2023/11/17 02:33:26;;;;;;;5.72;2.15;;;5.80;99.90;;;;;;6209982;23;20095;-77
2023/11/17 02:36:02;;;;;;;7.20;2.60;;;5.80;99.90;;;;;;6209144;23;20032;-78
2023/11/17 02:38:28;;;;;;;16.67;2.53;;;5.80;99.90;;;;;;6208500;23;20068;-77
2023/11/17 02:40:55;;;;;;;8.00;3.33;;;5.80;99.90;;;;;;6209260;23;20043;-77
2023/11/17 02:43:23;;;;;;;7.30;3.20;;;5.70;99.90;;;;;;6209463;23;20012;-77
2023/11/17 02:45:52;;;;;;;8.68;3.13;;;5.70;99.90;;;;;;6208249;23;20088;-78
2023/11/17 02:48:22;;;;;;;6.13;2.85;;;5.70;99.90;;;;;;6209814;23;20499;-76
2023/11/17 02:53:35;;;;;;;8.38;2.88;;;5.70;99.90;;;;;;6211483;23;20067;-74
2023/11/17 02:56:01;;;;;;;6.63;3.10;;;5.70;99.90;;;;;;6212172;23;20004;-76
2023/11/17 02:58:32;;;;;;;7.00;3.08;;;5.70;99.90;;;;;;6209343;23;20071;-75
2023/11/17 03:00:58;;;;;;;6.20;3.03;;;5.70;99.90;;;;;;6209757;23;20102;-75
2023/11/17 03:03:24;;;;;;;8.65;3.22;;;5.70;99.90;;;;;;6209358;23;20403;-76
2023/11/17 03:05:58;;;;;;;32.85;4.75;;;5.70;99.90;;;;;;6207428;23;20001;-76
2023/11/17 03:08:24;;;;;;;7.57;3.10;;;5.70;99.90;;;;;;6209089;23;20013;-76
2023/11/17 03:10:49;;;;;;;7.47;2.92;;;5.70;99.90;;;;;;6208944;23;20055;-77
2023/11/17 03:13:16;;;;;;;5.20;3.05;;;5.70;99.90;;;;;;6211066;23;20008;-77
2023/11/17 03:15:43;;;;;;;7.65;3.33;;;5.70;99.90;;;;;;6208005;23;20028;-76
2023/11/17 03:18:09;;;;;;;11.40;3.42;;;5.70;99.90;;;;;;6208933;23;20091;-76
2023/11/17 03:20:35;;;;;;;7.60;3.50;;;5.70;99.90;;;;;;6209355;23;20083;-77
2023/11/17 03:23:01;;;;;;;6.00;3.10;;;5.70;99.90;;;;;;6208237;23;20101;-76
2023/11/17 03:25:26;;;;;;;5.70;3.17;;;5.70;99.90;;;;;;6208257;23;20447;-77
2023/11/17 03:27:52;;;;;;;7.45;2.58;;;5.60;99.90;;;;;;6208711;23;20013;-78
2023/11/17 03:30:18;;;;;;;5.93;2.90;;;5.60;99.90;;;;;;6208852;23;20456;-77
2023/11/17 03:32:50;;;;;;;10.85;2.88;;;5.60;99.90;;;;;;6207601;23;20039;-75
2023/11/17 03:35:20;;;;;;;8.05;2.58;;;5.70;99.90;;;;;;6207831;23;20035;-76
2023/11/17 03:37:46;;;;;;;;;;;5.70;99.90;;;;;;6207718;23;20012;-77
2023/11/17 03:40:12;;;;;;;8.68;2.92;;;5.70;99.90;;;;;;6210853;23;19904;-77
2023/11/17 03:42:38;;;;;;;8.55;2.97;;;5.70;99.90;;;;;;6207954;23;20020;-76
2023/11/17 03:45:08;;;;;;;6.18;2.72;;;5.70;99.90;;;;;;6210654;23;20087;-77
2023/11/17 03:47:34;;;;;;;18.60;3.78;;;5.70;99.90;;;;;;6180039;22;20083;-76
2023/11/17 03:50:01;;;;;;;8.68;4.20;;;5.80;99.90;;;;;;6209155;22;20009;-75
2023/11/17 03:52:27;;;;;;;5.15;2.97;;;5.80;99.90;;;;;;6211359;22;20453;-78
2023/11/17 03:54:56;;;;;;;6.10;2.88;;;5.80;99.90;;;;;;6209810;23;20015;-73
2023/11/17 03:57:22;;;;;;;5.93;3.00;;;5.70;99.90;;;;;;6211902;22;20009;-76
2023/11/17 03:59:47;;;;;;;5.88;2.50;;;5.70;99.90;;;;;;6208833;23;20063;-75
2023/11/17 04:02:15;;;;;;;8.73;3.28;;;5.80;99.90;;;;;;6211419;23;20012;-75
2023/11/17 04:04:40;;;;;;;10.60;3.03;;;5.80;99.90;;;;;;6207705;23;20012;-75
2023/11/17 04:07:07;;;;;;;9.15;3.15;;;5.80;99.90;;;;;;6212432;22;20008;-74
2023/11/17 04:09:32;;;;;;;9.52;4.07;;;5.80;99.90;;;;;;6209286;23;20039;-75
2023/11/17 04:12:01;;;;;;;9.90;3.40;;;5.80;99.90;;;;;;6211804;23;20013;-75
2023/11/17 04:14:37;;;;;;;7.47;3.45;;;5.80;99.90;;;;;;6211079;23;20027;-76
2023/11/17 04:17:03;;;;;;;6.03;3.33;;;5.80;99.90;;;;;;6210036;23;20047;-75
2023/11/17 04:19:29;;;;;;;12.80;4.55;;;5.80;99.90;;;;;;6208877;23;20008;-76
2023/11/17 04:21:55;;;;;;;5.88;3.13;;;5.80;99.90;;;;;;6213072;23;20005;-78
2023/11/17 04:24:21;;;;;;;5.95;3.17;;;5.80;99.90;;;;;;6213020;23;20095;-76
2023/11/17 04:26:48;;;;;;;8.27;3.08;;;5.80;99.90;;;;;;6212017;23;20490;-74
2023/11/17 04:29:14;;;;;;;9.95;3.97;;;5.80;99.90;;;;;;6214941;23;20083;-75
2023/11/17 04:31:40;;;;;;;6.40;3.05;;;5.90;99.90;;;;;;6212528;23;20016;-74
2023/11/17 04:34:05;;;;;;;7.50;3.65;;;5.80;99.90;;;;;;6213046;23;20086;-74
2023/11/17 04:36:34;;;;;;;8.20;3.25;;;5.80;99.90;;;;;;6211330;23;20016;-76
2023/11/17 04:39:00;;;;;;;7.60;3.33;;;5.90;99.90;;;;;;6212883;23;20153;-75
2023/11/17 04:41:27;;;;;;;13.07;2.80;;;5.90;99.90;;;;;;6211950;23;20055;-77
2023/11/17 04:43:52;;;;;;;10.07;3.88;;;5.90;99.90;;;;;;6211146;23;20029;-75
2023/11/17 04:46:21;;;;;;;10.07;3.97;;;5.80;99.90;;;;;;6212955;23;20016;-75
2023/11/17 04:48:47;;;;;;;7.90;3.45;;;5.80;99.90;;;;;;6208433;23;20028;-74
2023/11/17 04:51:13;;;;;;;9.32;3.42;;;5.80;99.90;;;;;;6210224;23;20020;-75
2023/11/17 04:53:39;;;;;;;5.72;3.45;;;5.80;99.90;;;;;;6208116;23;20096;-75
2023/11/17 04:56:07;;;;;;;7.18;3.42;;;5.70;99.90;;;;;;6210476;23;20024;-75
2023/11/17 04:58:32;;;;;;;7.65;3.33;;;5.70;99.90;;;;;;6207380;23;20016;-74
2023/11/17 05:00:58;;;;;;;10.77;3.05;;;5.70;99.90;;;;;;6212007;23;20001;-76
2023/11/17 05:03:24;;;;;;;10.13;3.55;;;5.70;99.90;;;;;;6212856;23;20017;-75
2023/11/17 05:05:50;;;;;;;8.20;3.45;;;5.70;99.90;;;;;;6211306;23;20001;-75
2023/11/17 05:08:16;;;;;;;12.32;4.00;;;5.70;99.90;;;;;;6213099;23;20465;-75
2023/11/17 05:10:45;;;;;;;8.00;3.55;;;5.70;99.90;;;;;;6209454;23;20044;-79
2023/11/17 05:13:12;;;;;;;10.23;4.18;;;5.70;99.90;;;;;;6213542;23;20027;-74
2023/11/17 05:15:40;;;;;;;8.75;3.58;;;5.70;99.90;;;;;;6210445;23;20387;-74
2023/11/17 05:18:05;;;;;;;8.10;3.78;;;5.80;99.90;;;;;;6214198;23;20046;-78
2023/11/17 05:20:31;;;;;;;10.20;3.80;;;5.80;99.90;;;;;;6213070;23;20044;-75
2023/11/17 05:22:56;;;;;;;13.70;4.43;;;5.80;99.90;;;;;;6212476;23;20012;-76
2023/11/17 05:25:22;;;;;;;8.95;3.50;;;5.80;99.90;;;;;;6212892;23;20044;-75
2023/11/17 05:27:49;;;;;;;14.43;4.13;;;5.80;99.90;;;;;;6210988;23;20443;-78
2023/11/17 05:30:15;;;;;;;10.52;4.32;;;5.80;99.90;;;;;;6210663;23;20009;-75
2023/11/17 05:32:41;;;;;;;7.20;3.90;;;5.80;99.90;;;;;;6210500;23;20016;-75
2023/11/17 05:35:08;;;;;;;9.57;4.13;;;5.80;99.90;;;;;;6210102;23;20013;-74
2023/11/17 05:37:33;;;;;;;13.77;4.07;;;5.80;99.90;;;;;;6210864;23;20083;-76
2023/11/17 05:39:59;;;;;;;12.25;4.53;;;5.80;99.90;;;;;;6212110;23;20036;-74
2023/11/17 05:42:25;;;;;;;12.10;5.25;;;5.70;99.90;;;;;;6209962;23;20040;-75
2023/11/17 05:44:51;;;;;;;13.50;4.50;;;5.70;99.90;;;;;;6209294;23;20013;-76
2023/11/17 05:47:17;;;;;;;9.60;3.95;;;5.70;99.90;;;;;;6212191;23;20024;-75
2023/11/17 05:49:46;;;;;;;11.25;4.80;;;5.80;99.90;;;;;;6209174;23;20739;-75
2023/11/17 05:52:13;;;;;;;10.90;4.57;;;5.80;99.90;;;;;;6210051;23;20019;-75
2023/11/17 05:54:44;;;;;;;13.90;4.40;;;5.80;99.90;;;;;;6210995;23;20051;-75
2023/11/17 05:57:11;;;;;;;12.25;3.88;;;5.80;99.90;;;;;;6212370;23;20690;-76
2023/11/17 05:59:38;;;;;;;10.15;3.85;;;5.80;99.90;;;;;;6212212;23;20013;-74
2023/11/17 06:02:07;;;;;;;9.80;4.78;;;5.80;99.90;;;;;;6210781;23;20334;-74
2023/11/17 06:04:33;;;;;;;9.95;4.95;;;5.80;99.90;;;;;;6211610;23;20482;-75
2023/11/17 06:07:00;;;;;;;11.48;5.00;;;5.80;99.90;;;;;;6213833;23;20005;-76
2023/11/17 06:09:25;;;;;;;11.35;4.45;;;5.80;99.90;;;;;;6213624;23;20016;-74
2023/11/17 06:11:51;;;;;;;10.95;3.95;;;5.80;99.90;;;;;;6211668;23;20013;-74
2023/11/17 06:14:17;;;;;;;9.68;4.47;;;5.70;99.90;;;;;;6212219;23;20020;-75
2023/11/17 06:16:42;;;;;;;10.55;4.80;;;5.70;99.90;;;;;;6209903;23;20020;-74
2023/11/17 06:19:12;;;;;;;12.98;4.35;;;5.70;99.90;;;;;;6211887;23;20015;-74
2023/11/17 06:21:37;;;;;;;11.00;4.78;;;5.60;99.90;;;;;;6210865;23;20024;-75
2023/11/17 06:24:03;;;;;;;13.57;5.18;;;5.60;99.90;;;;;;6211476;23;20005;-76
2023/11/17 06:26:30;;;;;;;11.35;4.60;;;5.60;99.90;;;;;;6208460;23;20016;-74
2023/11/17 06:28:57;;;;;;;10.98;5.45;;;5.70;99.90;;;;;;6211284;23;20066;-75
2023/11/17 06:31:25;;;;;;;11.40;5.03;;;5.70;99.90;;;;;;6209524;23;20021;-75
2023/11/17 06:33:51;;;;;;;18.25;7.55;;;5.70;99.90;;;;;;6209912;23;20518;-76
2023/11/17 06:36:16;;;;;;;12.05;5.63;;;5.70;99.90;;;;;;6211172;23;20012;-75
2023/11/17 06:38:45;;;;;;;13.43;5.25;;;5.80;99.90;;;;;;6208181;23;20031;-77
2023/11/17 06:41:11;;;;;;;15.98;5.55;;;5.80;99.90;;;;;;6212458;23;20124;-75
2023/11/17 06:43:37;;;;;;;15.13;5.95;;;5.80;99.90;;;;;;6210684;23;20060;-75
2023/11/17 06:46:04;;;;;;;15.63;5.90;;;5.80;99.90;;;;;;6211933;23;20008;-76
2023/11/17 06:48:30;;;;;;;16.98;5.45;;;5.70;99.90;;;;;;6210979;23;20016;-75
2023/11/17 06:50:56;;;;;;;16.27;5.40;;;5.70;99.90;;;;;;6212513;23;20012;-74
2023/11/17 06:53:21;;;;;;;15.75;5.68;;;5.70;99.90;;;;;;6211811;23;20008;-74
2023/11/17 06:55:47;;;;;;;12.55;5.25;;;5.60;99.90;;;;;;6212097;23;20635;-75
2023/11/17 06:58:13;;;;;;;13.82;5.35;;;5.60;99.90;;;;;;6211142;23;20009;-76
2023/11/17 07:00:38;;;;;;;10.27;5.15;;;5.60;99.90;;;;;;6211806;23;20127;-74
2023/11/17 07:03:04;;;;;;;13.27;5.35;;;5.50;99.90;;;;;;6210808;23;20063;-75
2023/11/17 07:05:30;;;;;;;20.27;6.22;;;5.50;99.90;;;;;;6210451;23;20020;-77
2023/11/17 07:07:57;;;;;;;12.98;5.47;;;5.50;99.90;;;;;;6209283;23;20013;-74
2023/11/17 07:10:25;;;;;;;13.95;5.90;;;5.40;99.90;;;;;;6212014;23;20024;-76
2023/11/17 07:12:52;;;;;;;20.75;6.32;;;5.40;99.90;;;;;;6209757;23;20008;-77
2023/11/17 07:15:18;;;;;;;16.60;5.30;;;5.40;99.90;;;;;;6234981;22;20023;-75
2023/11/17 07:17:45;;;;;;;13.68;6.30;;;5.40;99.90;;;;;;6206236;23;20156;-74
2023/11/17 07:20:12;;;;;;;16.85;7.05;;;5.50;99.90;;;;;;6210127;23;20012;-75
2023/11/17 07:22:43;;;;;;;19.38;7.05;;;5.50;99.90;;;;;;6206854;23;20009;-74
2023/11/17 07:25:10;;;;;;;12.63;6.47;;;5.50;99.90;;;;;;6208773;23;20019;-74
2023/11/17 07:27:39;;;;;;;15.02;6.03;;;5.50;99.90;;;;;;6207033;23;20037;-75
2023/11/17 07:30:07;;;;;;;13.80;6.38;;;5.50;99.90;;;;;;6210856;23;20004;-74
2023/11/17 07:32:33;;;;;;;14.73;6.22;;;5.50;99.90;;;;;;6207750;23;20012;-76
2023/11/17 07:34:59;;;;;;;15.98;7.50;;;5.50;99.90;;;;;;6208656;23;20008;-75
2023/11/17 07:37:25;;;;;;;16.92;7.20;;;5.60;99.90;;;;;;6209338;23;20086;-76
2023/11/17 07:39:51;;;;;;;17.50;6.35;;;5.60;99.90;;;;;;6208174;23;20020;-75
2023/11/17 07:42:17;;;;;;;18.70;6.75;;;5.60;99.90;;;;;;6210168;23;20023;-75
2023/11/17 07:44:42;;;;;;;19.25;6.57;;;5.70;99.90;;;;;;6208887;23;20028;-75
2023/11/17 07:47:10;;;;;;;14.82;6.38;;;5.60;99.90;;;;;;6209746;23;20019;-76
2023/11/17 07:49:36;;;;;;;14.73;6.72;;;5.70;99.90;;;;;;6208906;22;20004;-75
2023/11/17 07:52:03;;;;;;;14.07;6.30;;;5.70;99.90;;;;;;6221675;22;20016;-76
2023/11/17 07:54:29;;;;;;;20.17;6.53;;;5.70;99.90;;;;;;6207056;23;20024;-73
2023/11/17 07:56:55;;;;;;;15.82;7.40;;;5.70;99.90;;;;;;6209432;23;20004;-76
2023/11/17 07:59:23;;;;;;;16.60;6.65;;;5.80;99.90;;;;;;6212369;23;20009;-75
2023/11/17 08:01:49;;;;;;;17.05;6.65;;;5.80;99.90;;;;;;6208471;23;20008;-76
2023/11/17 08:04:16;;;;;;;21.70;6.65;;;5.90;99.90;;;;;;6211120;23;20096;-76
2023/11/17 08:06:43;;;;;;;15.63;6.40;;;5.90;99.90;;;;;;6208917;23;20028;-77
2023/11/17 08:09:12;;;;;;;13.60;6.13;;;5.90;99.90;;;;;;6213281;23;20076;-76
2023/11/17 08:11:38;;;;;;;12.25;5.45;;;5.90;99.90;;;;;;6208987;23;20151;-75
2023/11/17 08:14:05;;;;;;;12.63;5.82;;;5.90;99.90;;;;;;6209634;23;20024;-75
2023/11/17 08:16:32;;;;;;;18.77;7.95;;;6.00;99.90;;;;;;6207761;23;20009;-75
2023/11/17 08:18:59;;;;;;;23.60;6.78;;;6.00;99.90;;;;;;6211726;23;20092;-74
2023/11/17 08:21:25;;;;;;;21.63;6.50;;;6.00;99.90;;;;;;6210839;23;20032;-74
2023/11/17 08:23:51;;;;;;;21.63;6.60;;;6.00;99.90;;;;;;6211394;23;20011;-75
2023/11/17 08:26:18;;;;;;;18.63;7.78;;;6.00;99.90;;;;;;6213363;23;20011;-76
2023/11/17 08:28:45;;;;;;;16.00;6.72;;;6.10;99.90;;;;;;6212229;23;20539;-76
2023/11/17 08:31:14;;;;;;;10.25;5.53;;;6.00;99.90;;;;;;6214593;23;20008;-76
2023/11/17 08:33:42;;;;;;;14.43;6.35;;;6.00;99.90;;;;;;6213158;23;20004;-75
2023/11/17 08:36:09;;;;;;;11.23;5.22;;;6.00;99.90;;;;;;6213724;23;20004;-75
2023/11/17 08:38:41;;;;;;;11.65;5.47;;;6.00;99.90;;;;;;6212715;23;20390;-74
2023/11/17 08:41:07;;;;;;;21.95;6.72;;;6.10;99.90;;;;;;6216677;23;20012;-74
2023/11/17 08:43:32;;;;;;;18.33;7.07;;;6.20;99.90;;;;;;6214946;23;20009;-76
2023/11/17 08:45:58;;;;;;;14.63;6.38;;;6.20;99.90;;;;;;6215968;23;20458;-76
2023/11/17 08:48:24;;;;;;;13.60;6.20;;;6.30;99.90;;;;;;6211964;23;20040;-76
2023/11/17 08:50:49;;;;;;;17.08;6.45;;;6.40;99.90;;;;;;6212670;23;20071;-77
2023/11/17 08:53:16;;;;;;;15.30;6.35;;;6.50;99.90;;;;;;6212262;23;20338;-76
2023/11/17 08:55:42;;;;;;;25.58;7.55;;;6.60;99.90;;;;;;6207448;23;20044;-76
2023/11/17 08:58:08;;;;;;;12.85;5.35;;;6.70;99.90;;;;;;6211560;23;20122;-77
2023/11/17 09:00:35;;;;;;;17.08;6.68;;;6.70;99.90;;;;;;6211158;23;20106;-76
2023/11/17 09:03:01;;;;;;;16.90;6.15;;;6.80;99.90;;;;;;6211340;23;20059;-75
2023/11/17 09:05:27;;;;;;;14.82;5.68;;;6.90;99.90;;;;;;6209012;23;20351;-77
2023/11/17 09:07:53;;;;;;;15.05;6.18;;;6.90;99.90;;;;;;6206585;23;20015;-77
2023/11/17 09:10:21;;;;;;;13.20;5.50;;;7.00;99.90;;;;;;6208567;23;20004;-76
2023/11/17 09:12:47;;;;;;;14.27;5.78;;;7.10;99.90;;;;;;6207993;23;20080;-75
2023/11/17 09:15:15;;;;;;;15.20;6.75;;;7.10;99.90;;;;;;6210805;23;20526;-75
2023/11/17 09:17:41;;;;;;;21.27;7.82;;;7.20;99.90;;;;;;6210734;23;20024;-77
2023/11/17 09:20:14;;;;;;;13.93;6.28;;;7.20;99.90;;;;;;6211084;23;20009;-76
2023/11/17 09:22:43;;;;;;;15.82;6.15;;;7.20;99.90;;;;;;6235036;22;20345;-76
2023/11/17 09:25:15;;;;;;;12.30;5.95;;;7.30;99.90;;;;;;6212262;23;20016;-76
2023/11/17 09:27:53;;;;;;;14.15;7.07;;;7.30;99.90;;;;;;6211873;23;20008;-76
2023/11/17 09:30:21;;;;;;;15.52;6.43;;;7.40;99.90;;;;;;6210879;23;20070;-77
2023/11/17 09:32:49;;;;;;;17.42;6.88;;;7.50;99.90;;;;;;6211245;23;20465;-75
2023/11/17 09:35:16;;;;;;;17.50;6.38;;;7.60;99.90;;;;;;6211617;23;20028;-75
2023/11/17 09:37:54;;;;;;;12.15;6.00;;;7.60;99.90;;;;;;6212040;23;20101;-75
2023/11/17 09:40:22;;;;;;;13.35;5.47;;;7.60;99.90;;;;;;6213914;23;20016;-76
2023/11/17 09:42:53;;;;;;;17.73;6.72;;;7.60;99.90;;;;;;6211295;23;20023;-76
2023/11/17 09:45:24;;;;;;;13.07;6.63;;;7.70;99.90;;;;;;6212671;23;20015;-75
2023/11/17 09:47:54;;;;;;;14.95;5.72;;;7.70;99.90;;;;;;6176927;22;20018;-76
2023/11/17 09:50:22;;;;;;;12.50;5.90;;;7.70;99.90;;;;;;6206139;23;20020;-74
2023/11/17 09:52:53;;;;;;;14.25;5.22;;;7.80;99.90;;;;;;6206752;22;20015;-74
2023/11/17 09:55:23;;;;;;;11.73;5.82;;;7.80;99.90;;;;;;6209851;22;20013;-75
2023/11/17 09:57:54;;;;;;;14.63;5.40;;;7.80;99.90;;;;;;6207038;22;20018;-75
2023/11/17 10:00:20;;;;;;;15.15;5.90;;;7.90;99.90;;;;;;6208098;23;20079;-75
2023/11/17 10:02:54;;;;;;;14.05;5.18;;;7.90;99.90;;;;;;6205673;22;20023;-75
2023/11/17 10:05:22;;;;;;;10.80;5.35;;;7.90;99.90;;;;;;6206830;23;20008;-76
2023/11/17 10:08:02;;;;;;;12.45;5.60;;;8.00;99.90;;;;;;6203337;22;20067;-75
2023/11/17 10:10:30;;;;;;;13.82;5.78;;;8.10;99.90;;;;;;6207441;23;20036;-76
2023/11/17 10:12:57;;;;;;;11.48;5.45;;;8.10;99.90;;;;;;6209041;22;20454;-76
2023/11/17 10:15:25;;;;;;;14.20;5.22;;;8.20;99.90;;;;;;6207766;23;20401;-73
2023/11/17 10:18:01;;;;;;;14.38;5.40;;;8.20;99.90;;;;;;6207854;22;20005;-72
2023/11/17 10:20:27;;;;;;;17.08;5.38;;;8.20;99.90;;;;;;6207443;23;20055;-71
2023/11/17 10:22:54;;;;;;;14.02;5.07;;;8.20;99.90;;;;;;6206729;23;20008;-71
2023/11/17 10:25:21;;;;;;;12.07;5.00;;;8.30;99.90;;;;;;6209092;22;20013;-71
2023/11/17 10:27:51;;;;;;;9.95;4.75;;;8.40;99.90;;;;;;6205513;22;20017;-75
2023/11/17 10:30:25;;;;;;;9.45;4.70;;;8.40;99.90;;;;;;6209945;22;20009;-74
2023/11/17 10:33:18;;;;;;;10.30;4.32;;;8.50;99.90;;;;;;6207749;22;20004;-74
2023/11/17 10:36:10;;;;;;;12.68;5.32;;;8.50;99.90;;;;;;6206345;22;20024;-75
2023/11/17 10:38:37;;;;;;;11.45;5.15;;;8.50;99.90;;;;;;6205789;22;20450;-72
2023/11/17 10:41:20;;;;;;;8.40;4.53;;;8.60;99.90;;;;;;6206589;23;20671;-73
2023/11/17 10:43:53;;;;;;;13.85;4.90;;;8.60;99.90;;;;;;6207056;22;20393;-72
2023/11/17 10:46:40;;;;;;;10.60;3.85;;;8.60;99.90;;;;;;6206583;23;20528;-74
2023/11/17 10:49:06;;;;;;;9.48;4.10;;;8.60;99.90;;;;;;6208588;22;20024;-72
2023/11/17 10:51:32;;;;;;;7.43;3.50;;;8.70;99.90;;;;;;6206825;22;20071;-72
2023/11/17 10:54:11;;;;;;;8.75;3.78;;;8.70;99.90;;;;;;6209203;22;20028;-76
2023/11/17 10:56:39;;;;;;;9.75;4.55;;;8.60;99.90;;;;;;6206215;22;20024;-72
2023/11/17 10:59:08;;;;;;;6.55;2.90;;;8.70;99.90;;;;;;6208831;22;20058;-72
2023/11/17 11:01:40;;;;;;;10.55;3.28;;;8.80;99.90;;;;;;6204738;22;20351;-73
2023/11/17 11:04:09;;;;;;;7.38;3.28;;;8.80;99.90;;;;;;6206569;22;20009;-71
2023/11/17 11:06:40;;;;;;;7.45;3.97;;;8.90;99.90;;;;;;6205036;22;20525;-73
2023/11/17 11:09:06;;;;;;;7.80;3.17;;;9.20;99.90;;;;;;6208551;22;20087;-73
2023/11/17 11:11:32;;;;;;;5.40;2.95;;;9.50;99.90;;;;;;6205655;22;20089;-72
2023/11/17 11:14:02;;;;;;;4.97;2.75;;;9.80;99.90;;;;;;6208408;22;20021;-72
2023/11/17 11:16:33;;;;;;;4.80;2.30;;;10.00;99.90;;;;;;6208872;22;20093;-73
2023/11/17 11:19:02;;;;;;;8.25;2.58;;;10.10;99.90;;;;;;6206181;23;20005;-72
2023/11/17 11:21:30;;;;;;;5.60;2.13;;;10.00;99.90;;;;;;6206998;23;20005;-72
2023/11/17 11:23:59;;;;;;;4.97;3.10;;;10.00;99.90;;;;;;6207053;22;20434;-73
2023/11/17 11:26:27;;;;;;;4.83;2.23;;;9.90;99.90;;;;;;6208862;22;20088;-72
2023/11/17 11:28:53;;;;;;;5.90;2.22;;;9.90;99.90;;;;;;6207614;22;20015;-73
2023/11/17 11:31:23;;;;;;;5.68;2.67;;;9.90;99.90;;;;;;6209831;22;20040;-73
2023/11/17 11:33:50;;;;;;;8.25;2.75;;;9.80;99.90;;;;;;6209749;22;20009;-74
2023/11/17 11:36:16;;;;;;;6.28;2.45;;;9.80;99.90;;;;;;6208994;23;20028;-73
2023/11/17 11:38:47;;;;;;;5.70;2.75;;;9.70;99.90;;;;;;6207857;22;20036;-73
2023/11/17 11:41:15;;;;;;;12.27;2.80;;;9.60;99.90;;;;;;6211293;22;20079;-73
2023/11/17 11:43:49;;;;;;;7.60;2.97;;;9.50;99.90;;;;;;6208951;22;20048;-73
2023/11/17 11:46:17;;;;;;;4.72;2.40;;;9.40;99.90;;;;;;6210902;22;20005;-76
2023/11/17 11:49:22;;;;;;;5.35;2.40;;;9.40;99.90;;;;;;6209280;22;20008;-76
2023/11/17 11:51:54;;;;;;;6.07;2.58;;;9.30;99.90;;;;;;6143084;22;20354;-75
2023/11/17 11:54:20;;;;;;;4.43;2.15;;;9.30;99.90;;;;;;6208788;23;20013;-77
2023/11/17 11:56:47;;;;;;;5.90;1.65;;;9.30;99.90;;;;;;6208686;22;20011;-76
2023/11/17 11:59:13;;;;;;;4.47;1.70;;;9.40;99.90;;;;;;6210324;22;20083;-77
2023/11/17 12:01:42;;;;;;;6.93;1.63;;;9.50;99.90;;;;;;6209452;22;20012;-75
2023/11/17 12:04:10;;;;;;;4.97;2.42;;;9.50;99.90;;;;;;6212874;22;20009;-76
2023/11/17 12:06:37;;;;;;;4.72;2.03;;;9.60;99.90;;;;;;6210204;22;20015;-76
2023/11/17 12:09:07;;;;;;;4.72;1.52;;;9.60;99.90;;;;;;6211557;22;20023;-77
2023/11/17 12:11:34;;;;;;;;;;;9.60;99.90;;;;;;6211166;22;20012;-77
2023/11/17 12:13:59;;;;;;;5.07;2.10;;;9.50;99.90;;;;;;6210483;23;19989;-76
2023/11/17 12:16:28;;;;;;;4.32;1.42;;;9.60;99.90;;;;;;6208188;22;20013;-77
2023/11/17 12:18:55;;;;;;;3.38;1.65;;;9.60;99.90;;;;;;6209488;23;20879;-77
2023/11/17 12:21:22;;;;;;;3.30;1.42;;;9.60;99.90;;;;;;6211288;22;20013;-77
2023/11/17 12:23:59;;;;;;;8.48;2.03;;;9.60;99.90;;;;;;6211180;22;20832;-77
2023/11/17 12:26:26;;;;;;;6.78;2.03;;;9.60;99.90;;;;;;6210049;22;20005;-77
2023/11/17 12:28:56;;;;;;;4.53;1.80;;;9.60;99.90;;;;;;6209382;22;20005;-78
2023/11/17 12:31:22;;;;;;;8.32;1.58;;;9.50;99.90;;;;;;6210332;22;20001;-78
2023/11/17 12:33:51;;;;;;;7.03;1.73;;;9.50;99.90;;;;;;6209723;22;20376;-75
2023/11/17 12:36:19;;;;;;;4.88;2.13;;;9.40;99.90;;;;;;6207582;22;20032;-74
2023/11/17 12:38:56;;;;;;;7.65;1.95;;;9.50;99.90;;;;;;6208003;22;20066;-75
2023/11/17 12:41:26;;;;;;;4.07;2.30;;;9.50;99.90;;;;;;6208394;22;20052;-76
2023/11/17 12:43:55;;;;;;;6.47;2.50;;;9.50;99.90;;;;;;6207607;22;20002;-74
2023/11/17 12:46:25;;;;;;;3.70;1.60;;;9.50;99.90;;;;;;6207504;22;20008;-75
2023/11/17 12:48:51;;;;;;;2.65;1.10;;;9.50;99.90;;;;;;6208275;22;20013;-75
2023/11/17 12:51:27;;;;;;;2.75;1.58;;;9.50;99.90;;;;;;6206202;23;20004;-75
2023/11/17 12:53:55;;;;;;;4.03;1.83;;;9.50;99.90;;;;;;6205986;22;20001;-74
2023/11/17 12:56:22;;;;;;;6.07;1.77;;;9.50;99.90;;;;;;6205525;23;20058;-74
2023/11/17 12:58:49;;;;;;;3.60;1.52;;;9.60;99.90;;;;;;6208312;22;20020;-75
2023/11/17 13:01:16;;;;;;;5.10;2.20;;;9.60;99.90;;;;;;6207300;23;20019;-75